Time;durP1;ratioP1;P1;durP2;ratioP2;P2;SDS_P1;SDS_P2;PMS_P1;PMS_P2;Temp;Humidity;BMP_temperature;BMP_pressure;BME280_temperature;BME280_humidity;BME280_pressure;Samples;Min_cycle;Max_cycle;Signal;HPM_P1;HPM_P2
2024/01/30 00:01:14;;;;;;;27.20;18.92;;;;;;;6.40;100.00;102227.97;5011624;28;20046;-84
2024/01/30 00:03:41;;;;;;;23.83;17.60;;;;;;;6.33;100.00;102230.91;5013357;28;20046;-85
2024/01/30 00:06:15;;;;;;;27.55;18.90;;;;;;;6.32;100.00;102223.19;5008762;28;20050;-85
2024/01/30 00:08:48;;;;;;;26.73;19.30;;;;;;;6.25;100.00;102220.13;5011202;28;20042;-85
2024/01/30 00:11:21;;;;;;;24.45;17.67;;;;;;;6.20;100.00;102209.16;5011071;28;20077;-85
2024/01/30 00:13:53;;;;;;;32.90;20.15;;;;;;;6.21;100.00;102218.63;5004009;28;20058;-85
2024/01/30 00:16:25;;;;;;;25.30;19.10;;;;;;;6.18;100.00;102213.59;5011564;28;20046;-85
2024/01/30 00:18:57;;;;;;;31.58;19.73;;;;;;;6.22;100.00;102216.84;5003311;28;20058;-85
2024/01/30 00:21:26;;;;;;;25.58;18.38;;;;;;;6.28;100.00;102216.50;5002090;28;20042;-84
2024/01/30 00:30:26;;;;;;;26.02;19.02;;;;;;;6.17;100.00;102206.72;5026214;23;20049;-80
2024/01/30 00:32:55;;;;;;;28.23;18.95;;;;;;;6.16;100.00;102209.41;4999496;28;20078;-79
2024/01/30 00:35:22;;;;;;;28.42;19.48;;;;;;;6.13;100.00;102212.22;4982906;28;20054;-79
2024/01/30 00:37:49;;;;;;;26.35;19.17;;;;;;;6.10;100.00;102215.84;4973459;28;20046;-79
2024/01/30 00:40:18;;;;;;;24.77;19.00;;;;;;;6.06;100.00;102216.94;4980758;28;20078;-79
2024/01/30 00:42:45;;;;;;;26.55;19.65;;;;;;;6.04;100.00;102213.59;4985252;28;20089;-79
2024/01/30 00:45:16;;;;;;;28.60;20.23;;;;;;;6.07;100.00;102207.38;4992908;28;20050;-79
2024/01/30 00:47:42;;;;;;;32.28;20.33;;;;;;;6.05;100.00;102212.66;5000844;28;20077;-80
2024/01/30 00:50:11;;;;;;;29.52;19.73;;;;;;;6.04;100.00;102204.94;4979701;28;20115;-79
2024/01/30 00:52:38;;;;;;;32.60;20.48;;;;;;;5.99;100.00;102205.22;4994325;28;20089;-79
2024/01/30 00:55:06;;;;;;;26.48;19.92;;;;;;;5.99;100.00;102202.59;4977975;28;20055;-79
2024/01/30 00:57:33;;;;;;;28.33;20.27;;;;;;;5.98;100.00;102200.94;4979428;28;20110;-79
2024/01/30 00:59:59;;;;;;;25.35;19.27;;;;;;;5.89;100.00;102197.09;4997287;28;20101;-80
2024/01/30 01:02:26;;;;;;;28.23;20.08;;;;;;;5.94;100.00;102202.03;4996545;28;20088;-79
2024/01/30 01:04:52;;;;;;;30.48;21.02;;;;;;;5.95;100.00;102206.31;4986547;28;20116;-79
2024/01/30 01:07:20;;;;;;;28.40;20.20;;;;;;;5.89;100.00;102191.06;4987004;28;20085;-80
2024/01/30 01:09:47;;;;;;;30.20;21.05;;;;;;;5.91;100.00;102200.44;4967103;28;20047;-80
2024/01/30 01:12:14;;;;;;;25.25;19.83;;;;;;;5.88;100.00;102204.94;4992181;28;20129;-79
2024/01/30 01:14:40;;;;;;;30.27;20.10;;;;;;;5.89;100.00;102202.28;5000028;28;20054;-78
2024/01/30 01:17:07;;;;;;;27.20;20.63;;;;;;;5.85;100.00;102205.13;4998573;28;20108;-80
2024/01/30 01:19:34;;;;;;;27.08;19.85;;;;;;;5.84;100.00;102201.69;4999462;28;20105;-79
2024/01/30 01:22:00;;;;;;;33.40;20.83;;;;;;;5.85;100.00;102205.13;4969937;28;20077;-79
2024/01/30 01:24:28;;;;;;;30.45;20.83;;;;;;;5.86;100.00;102212.81;4979303;28;20050;-78
2024/01/30 01:26:56;;;;;;;32.97;20.58;;;;;;;5.93;100.00;102202.97;4971457;28;20137;-78
2024/01/30 01:29:28;;;;;;;30.27;20.63;;;;;;;5.86;100.00;102201.59;4994125;28;20058;-78
2024/01/30 01:31:55;;;;;;;31.25;20.35;;;;;;;5.81;100.00;102207.06;4988040;28;20145;-78
2024/01/30 01:34:22;;;;;;;28.88;21.20;;;;;;;5.77;100.00;102210.75;4995773;28;20050;-79
2024/01/30 01:36:49;;;;;;;30.92;21.63;;;;;;;5.73;100.00;102198.00;4971709;28;20140;-78
2024/01/30 01:39:16;;;;;;;31.55;22.63;;;;;;;5.69;100.00;102210.34;4963733;28;20062;-78
2024/01/30 01:41:44;;;;;;;30.05;22.40;;;;;;;5.66;100.00;102200.16;4987461;28;20057;-79
2024/01/30 01:44:11;;;;;;;31.10;22.60;;;;;;;5.61;100.00;102200.41;4997794;28;20097;-78
2024/01/30 01:46:38;;;;;;;29.90;21.20;;;;;;;5.58;100.00;102192.78;4977793;28;20077;-79
2024/01/30 01:49:06;;;;;;;33.10;22.15;;;;;;;5.56;100.00;102199.81;4980326;28;20561;-78
2024/01/30 01:51:36;;;;;;;32.00;22.05;;;;;;;5.55;100.00;102198.16;4989743;28;20061;-80
2024/01/30 01:54:05;;;;;;;28.85;20.55;;;;;;;5.54;100.00;102201.66;4991617;28;20077;-79
2024/01/30 01:56:34;;;;;;;31.50;21.75;;;;;;;5.55;100.00;102197.31;4986229;28;20081;-78
2024/01/30 01:59:07;;;;;;;30.38;21.08;;;;;;;5.61;100.00;102196.97;4991459;28;20060;-79
2024/01/30 02:01:34;;;;;;;31.75;21.67;;;;;;;5.60;100.00;102201.31;4993370;28;20052;-77
2024/01/30 02:04:01;;;;;;;30.23;21.90;;;;;;;5.59;100.00;102202.25;4990023;28;20108;-79
2024/01/30 02:06:28;;;;;;;33.42;20.98;;;;;;;5.59;100.00;102199.66;4986606;28;20075;-79
2024/01/30 02:08:55;;;;;;;27.27;20.60;;;;;;;5.55;100.00;102202.50;4992610;28;20054;-78
2024/01/30 02:11:23;;;;;;;29.65;20.17;;;;;;;5.55;100.00;102198.16;4988121;28;20070;-79
2024/01/30 02:13:50;;;;;;;31.17;21.20;;;;;;;5.59;100.00;102189.25;4978133;28;20101;-80
2024/01/30 02:16:18;;;;;;;31.98;20.55;;;;;;;5.53;100.00;102184.41;4975282;28;20054;-79
2024/01/30 02:18:47;;;;;;;32.60;21.65;;;;;;;5.59;100.00;102191.84;4969575;28;20146;-79
2024/01/30 02:21:15;;;;;;;28.50;20.15;;;;;;;5.63;100.00;102188.16;4983260;28;20501;-79
2024/01/30 02:23:43;;;;;;;31.27;20.98;;;;;;;5.57;100.00;102190.28;4980584;28;20134;-78
2024/01/30 02:26:11;;;;;;;29.67;20.60;;;;;;;5.52;100.00;102184.50;4989822;28;20050;-80
2024/01/30 02:28:37;;;;;;;31.48;21.83;;;;;;;5.55;100.00;102182.56;4994889;28;20465;-79
2024/01/30 02:31:04;;;;;;;29.67;20.35;;;;;;;5.53;100.00;102178.38;4994672;28;20073;-79
2024/01/30 02:33:31;;;;;;;32.38;21.20;;;;;;;5.62;100.00;102188.25;4990237;28;20090;-79
2024/01/30 02:35:58;;;;;;;32.08;20.85;;;;;;;5.60;100.00;102180.56;4983931;28;20146;-78
2024/01/30 02:38:26;;;;;;;31.33;22.02;;;;;;;5.67;100.00;102175.84;4976503;28;20082;-78
2024/01/30 02:40:56;;;;;;;32.70;21.30;;;;;;;5.65;100.00;102167.31;4978143;28;20050;-78
2024/01/30 02:43:23;;;;;;;27.92;20.33;;;;;;;5.64;100.00;102169.06;4995171;28;20060;-79
2024/01/30 02:45:50;;;;;;;29.42;20.27;;;;;;;5.65;100.00;102168.16;5000183;28;20580;-79
2024/01/30 02:48:16;;;;;;;33.10;20.13;;;;;;;5.71;100.00;102160.91;4999266;28;20061;-79
2024/01/30 02:50:43;;;;;;;33.63;21.65;;;;;;;5.59;100.00;102139.09;4990119;28;20066;-79
2024/01/30 02:53:10;;;;;;;29.85;20.13;;;;;;;5.76;100.00;102159.72;4999947;28;20527;-78
2024/01/30 02:55:38;;;;;;;29.83;20.70;;;;;;;5.83;100.00;102168.00;5000054;28;20117;-80
2024/01/30 02:58:05;;;;;;;29.45;20.67;;;;;;;5.73;100.00;102153.84;4999532;28;20089;-79
2024/01/30 03:00:31;;;;;;;29.33;20.35;;;;;;;5.72;100.00;102147.00;5000239;28;20125;-80
2024/01/30 03:02:58;;;;;;;33.40;20.67;;;;;;;5.78;100.00;102151.84;4994623;28;20251;-78
2024/01/30 03:05:24;;;;;;;27.27;20.05;;;;;;;5.80;100.00;102152.59;4997029;28;20078;-80
2024/01/30 03:07:51;;;;;;;28.13;20.05;;;;;;;5.78;100.00;102149.25;5001484;28;20452;-78
2024/01/30 03:10:18;;;;;;;28.83;19.90;;;;;;;5.73;100.00;102146.91;4999760;28;20050;-79
2024/01/30 03:12:46;;;;;;;30.20;20.33;;;;;;;5.68;100.00;102141.13;4988917;28;20492;-77
2024/01/30 03:15:13;;;;;;;30.58;20.23;;;;;;;5.67;100.00;102136.91;4991732;28;20250;-78
2024/01/30 03:17:39;;;;;;;30.52;20.88;;;;;;;5.64;100.00;102144.84;4973382;28;20133;-78
2024/01/30 03:20:07;;;;;;;29.83;20.00;;;;;;;5.67;100.00;102145.50;4995851;28;20054;-78
2024/01/30 03:22:34;;;;;;;30.50;20.52;;;;;;;5.68;100.00;102136.78;4982125;28;20502;-78
2024/01/30 03:25:00;;;;;;;29.20;19.35;;;;;;;5.70;100.00;102147.06;4994395;28;20476;-77
2024/01/30 03:27:27;;;;;;;29.98;20.60;;;;;;;5.71;100.00;102140.97;4974594;28;20086;-77
2024/01/30 03:29:55;;;;;;;27.50;19.35;;;;;;;5.74;100.00;102145.97;5005383;28;20050;-79
2024/01/30 03:32:22;;;;;;;29.45;19.85;;;;;;;5.79;100.00;102143.13;4991945;28;20046;-79
2024/01/30 03:34:48;;;;;;;26.75;19.38;;;;;;;5.77;100.00;102138.00;4994458;28;20138;-78
2024/01/30 03:37:15;;;;;;;31.35;20.55;;;;;;;5.70;100.00;102133.25;4976063;28;20141;-79
2024/01/30 03:39:41;;;;;;;32.83;20.23;;;;;;;5.72;100.00;102132.25;4996826;28;20141;-79
2024/01/30 03:42:08;;;;;;;29.23;21.10;;;;;;;5.75;100.00;102136.44;4990580;28;20046;-79
2024/01/30 03:44:35;;;;;;;31.90;20.55;;;;;;;5.71;100.00;102134.94;4997712;28;20089;-79
2024/01/30 03:47:03;;;;;;;29.20;20.92;;;;;;;5.73;100.00;102133.09;4996668;28;20051;-78
2024/01/30 03:49:29;;;;;;;32.28;21.92;;;;;;;5.72;100.00;102132.25;4989910;28;20114;-78
2024/01/30 03:51:56;;;;;;;31.40;19.85;;;;;;;5.74;100.00;102125.19;4995075;28;20556;-79
2024/01/30 03:54:23;;;;;;;28.98;19.83;;;;;;;5.76;100.00;102122.53;4989809;28;20047;-79
2024/01/30 03:56:49;;;;;;;30.50;20.08;;;;;;;5.73;100.00;102118.34;4983914;28;20130;-79
2024/01/30 03:59:17;;;;;;;30.88;20.80;;;;;;;5.74;100.00;102129.56;4999056;28;20129;-81
2024/01/30 04:01:44;;;;;;;31.95;19.42;;;;;;;5.73;100.00;102128.72;4994366;28;20050;-79
2024/01/30 04:04:12;;;;;;;28.75;20.55;;;;;;;5.73;100.00;102113.13;4970900;28;20100;-79
2024/01/30 04:06:38;;;;;;;27.83;20.05;;;;;;;5.77;100.00;102124.19;4988097;28;20049;-79
2024/01/30 04:09:05;;;;;;;26.90;20.00;;;;;;;5.76;100.00;102118.16;4997021;28;20093;-78
2024/01/30 04:11:31;;;;;;;25.17;18.75;;;;;;;5.74;100.00;102121.78;4985216;28;20107;-79
2024/01/30 04:13:58;;;;;;;30.02;20.23;;;;;;;5.69;100.00;102122.03;4997318;28;20137;-79
2024/01/30 04:16:25;;;;;;;31.52;21.17;;;;;;;5.73;100.00;102127.88;4996753;28;20133;-78
2024/01/30 04:18:53;;;;;;;31.33;19.75;;;;;;;5.71;100.00;102121.94;4988883;28;20141;-78
2024/01/30 04:21:21;;;;;;;30.55;19.60;;;;;;;5.63;100.00;102106.84;4995699;28;20098;-79
2024/01/30 04:23:48;;;;;;;28.70;18.83;;;;;;;5.65;100.00;102120.56;4978315;28;20153;-78
2024/01/30 04:26:14;;;;;;;30.20;19.35;;;;;;;5.67;100.00;102119.53;4976827;28;20564;-78
2024/01/30 04:28:42;;;;;;;28.83;19.52;;;;;;;5.67;100.00;102122.13;4987455;28;20086;-78
2024/01/30 04:31:31;;;;;;;27.50;18.42;;;;;;;5.62;100.00;102121.56;4988118;28;20082;-79
2024/01/30 04:33:57;;;;;;;31.48;19.42;;;;;;;5.71;100.00;102124.53;5000262;28;20134;-80
2024/01/30 04:36:25;;;;;;;28.98;19.48;;;;;;;5.72;100.00;102121.03;4992169;28;20417;-79
2024/01/30 04:38:52;;;;;;;27.83;18.40;;;;;;;5.74;100.00;102132.16;4985731;28;20079;-79
2024/01/30 04:41:18;;;;;;;31.88;19.50;;;;;;;5.74;100.00;102124.38;4987664;28;20086;-79
2024/01/30 04:43:47;;;;;;;27.13;18.60;;;;;;;5.71;100.00;102124.53;4993276;28;20086;-79
2024/01/30 04:46:14;;;;;;;25.92;18.30;;;;;;;5.68;100.00;102121.19;4984830;28;20314;-79
2024/01/30 04:48:43;;;;;;;24.98;17.30;;;;;;;5.71;100.00;102119.34;4992466;28;20078;-80
2024/01/30 04:51:09;;;;;;;30.95;19.23;;;;;;;5.72;100.00;102116.66;4993366;28;20062;-80
2024/01/30 04:53:39;;;;;;;29.23;16.90;;;;;;;5.80;100.00;102116.22;4977194;28;20058;-79
2024/01/30 04:56:08;;;;;;;26.00;17.25;;;;;;;5.76;100.00;102105.19;4977147;28;20435;-79
2024/01/30 04:58:37;;;;;;;24.77;17.70;;;;;;;5.76;100.00;102107.78;4977185;28;20081;-78
2024/01/30 05:01:04;;;;;;;27.45;17.90;;;;;;;5.81;100.00;102107.50;4990565;28;20042;-78
2024/01/30 05:03:36;;;;;;;24.15;16.33;;;;;;;5.78;100.00;102105.91;4989621;28;20074;-79
2024/01/30 05:06:03;;;;;;;;;;;;;;;5.82;100.00;102104.81;4977046;28;20082;-78
2024/01/30 05:08:30;;;;;;;27.85;17.35;;;;;;;5.84;100.00;102110.75;4977230;28;19922;-78
2024/01/30 05:11:03;;;;;;;26.02;17.02;;;;;;;5.87;100.00;102108.00;4977433;28;20137;-80
2024/01/30 05:13:30;;;;;;;32.60;18.52;;;;;;;5.91;100.00;102111.28;4970714;28;20074;-79
2024/01/30 05:15:56;;;;;;;27.17;17.15;;;;;;;5.89;100.00;102106.16;4995104;28;20065;-79
2024/01/30 05:18:26;;;;;;;24.08;17.25;;;;;;;5.90;100.00;102105.25;4997088;28;20547;-78
2024/01/30 05:20:53;;;;;;;26.77;17.92;;;;;;;5.84;100.00;102107.31;4981798;28;20055;-79
2024/01/30 05:23:19;;;;;;;25.75;17.38;;;;;;;5.84;100.00;102107.31;4991185;28;20050;-79
2024/01/30 05:25:46;;;;;;;27.33;17.98;;;;;;;5.89;100.00;102113.13;4988137;28;20089;-79
2024/01/30 05:28:14;;;;;;;24.67;17.88;;;;;;;5.81;100.00;102094.53;4979404;28;20051;-80
2024/01/30 05:30:40;;;;;;;26.80;18.30;;;;;;;5.75;100.00;102100.91;4981741;28;20051;-78
2024/01/30 05:33:07;;;;;;;27.95;18.33;;;;;;;5.73;100.00;102099.31;4993653;28;20074;-79
2024/01/30 05:35:34;;;;;;;28.05;18.15;;;;;;;5.67;100.00;102093.56;4982448;28;20065;-79
2024/01/30 05:38:00;;;;;;;26.67;17.58;;;;;;;5.66;100.00;102099.69;4999969;28;20074;-79
2024/01/30 05:40:27;;;;;;;29.85;18.65;;;;;;;5.63;100.00;102097.28;4997694;28;20119;-78
2024/01/30 05:42:53;;;;;;;28.20;17.88;;;;;;;5.58;100.00;102096.69;4982852;28;20045;-77
2024/01/30 05:45:23;;;;;;;25.80;17.75;;;;;;;5.62;100.00;102092.16;4989515;28;20069;-78
2024/01/30 05:47:49;;;;;;;24.23;16.05;;;;;;;5.60;100.00;102097.44;4968376;28;20058;-79
2024/01/30 05:50:16;;;;;;;26.17;17.17;;;;;;;5.62;100.00;102095.59;4976806;28;20145;-78
2024/01/30 05:52:43;;;;;;;25.10;17.25;;;;;;;5.61;100.00;102101.72;4978040;28;20102;-79
2024/01/30 05:55:10;;;;;;;23.42;17.13;;;;;;;5.55;100.00;102101.22;4978363;28;20122;-79
2024/01/30 05:57:37;;;;;;;22.50;16.25;;;;;;;5.57;100.00;102105.41;4977342;28;20478;-79
2024/01/30 06:00:04;;;;;;;26.45;16.35;;;;;;;5.57;100.00;102102.81;4986289;28;20050;-79
2024/01/30 06:02:32;;;;;;;27.50;17.20;;;;;;;5.60;100.00;102105.25;4983901;28;20078;-79
2024/01/30 06:04:59;;;;;;;25.08;15.55;;;;;;;5.67;100.00;102103.94;4993613;28;20129;-78
2024/01/30 06:07:26;;;;;;;24.58;16.67;;;;;;;5.63;100.00;102097.28;4987817;28;20078;-79
2024/01/30 06:09:53;;;;;;;22.30;15.05;;;;;;;5.66;100.00;102088.47;4991695;28;20683;-79
2024/01/30 06:12:19;;;;;;;23.77;15.98;;;;;;;5.70;100.00;102095.13;4970058;28;20078;-79
2024/01/30 06:14:46;;;;;;;27.30;17.38;;;;;;;5.72;100.00;102089.84;4975372;28;20145;-78
2024/01/30 06:17:14;;;;;;;25.85;16.27;;;;;;;5.73;100.00;102094.13;4988431;28;20117;-79
2024/01/30 06:19:42;;;;;;;28.58;16.45;;;;;;;5.73;100.00;102094.13;4996081;28;20130;-79
2024/01/30 06:22:08;;;;;;;24.77;16.42;;;;;;;5.71;100.00;102081.22;4999533;28;20054;-79
2024/01/30 06:24:35;;;;;;;23.80;15.63;;;;;;;5.67;100.00;102082.34;4998877;28;20078;-79
2024/01/30 06:27:02;;;;;;;24.85;16.98;;;;;;;5.70;100.00;102081.31;4969515;28;20082;-79
2024/01/30 06:29:36;;;;;;;23.05;17.40;;;;;;;5.73;100.00;102076.78;4997393;23;20083;-81
2024/01/30 06:32:13;;;;;;;25.77;16.77;;;;;;;5.72;100.00;102075.09;4999706;28;20084;-82
2024/01/30 06:34:44;;;;;;;25.20;16.90;;;;;;;5.81;100.00;102084.13;5019766;28;20056;-83
2024/01/30 07:08:30;;;;;;;29.27;17.00;;;;;;;6.02;100.00;102100.25;4946292;29;20525;-83
2024/01/30 07:11:00;;;;;;;25.85;16.42;;;;;;;6.04;100.00;102086.25;4950790;28;20058;-83
2024/01/30 07:13:29;;;;;;;23.15;15.95;;;;;;;6.16;100.00;102105.44;4980717;28;20054;-86
2024/01/30 07:15:58;;;;;;;26.48;15.85;;;;;;;6.05;100.00;102082.72;4985614;28;20055;-86
2024/01/30 07:18:24;;;;;;;24.90;14.48;;;;;;;6.18;100.00;102091.44;4991406;28;20068;-82
2024/01/30 07:20:52;;;;;;;23.83;14.93;;;;;;;6.14;100.00;102092.56;4996169;28;20058;-83
2024/01/30 07:23:19;;;;;;;24.73;16.10;;;;;;;6.11;100.00;102097.13;4986741;28;20043;-83
2024/01/30 07:25:48;;;;;;;25.52;16.65;;;;;;;6.18;100.00;102098.41;4998891;28;20057;-83
2024/01/30 07:28:16;;;;;;;22.48;15.68;;;;;;;6.17;100.00;102100.16;4988414;28;20051;-83
2024/01/30 07:30:43;;;;;;;25.60;16.15;;;;;;;6.19;100.00;102100.91;4991828;28;20082;-82
2024/01/30 07:33:10;;;;;;;22.95;15.75;;;;;;;6.22;100.00;102107.69;4981962;28;20085;-84
2024/01/30 07:35:37;;;;;;;23.85;15.35;;;;;;;6.26;100.00;102101.38;5008297;28;20050;-81
2024/01/30 07:38:05;;;;;;;23.27;14.95;;;;;;;6.27;100.00;102101.28;5002704;28;20116;-84
2024/01/30 07:40:33;;;;;;;21.90;15.38;;;;;;;6.24;100.00;102093.66;5006099;28;20101;-83
2024/01/30 07:43:00;;;;;;;24.77;15.18;;;;;;;6.35;100.00;102107.78;5003597;28;20058;-83
2024/01/30 07:45:32;;;;;;;28.23;15.70;;;;;;;6.33;100.00;102089.69;4985536;28;20105;-84
2024/01/30 07:47:59;;;;;;;24.17;15.95;;;;;;;6.32;100.00;102091.44;4983102;28;20051;-83
2024/01/30 07:50:26;;;;;;;27.05;16.20;;;;;;;6.33;100.00;102092.28;4979639;28;20046;-83
2024/01/30 07:52:54;;;;;;;22.42;15.57;;;;;;;6.27;100.00;102097.84;4971363;28;20040;-83
2024/01/30 07:55:24;;;;;;;28.40;16.35;;;;;;;6.36;100.00;102112.91;4985855;28;20098;-83
2024/01/30 07:57:52;;;;;;;27.63;16.60;;;;;;;6.31;100.00;102118.38;4978670;28;20057;-83
2024/01/30 08:00:19;;;;;;;24.77;17.48;;;;;;;6.32;100.00;102114.00;4993849;28;20046;-83
2024/01/30 08:02:46;;;;;;;25.35;17.50;;;;;;;6.23;100.00;102115.41;4995114;28;20081;-83
2024/01/30 08:05:15;;;;;;;25.13;18.23;;;;;;;6.22;100.00;102113.72;4982616;28;20074;-83
2024/01/30 08:07:42;;;;;;;24.45;17.45;;;;;;;6.29;100.00;102128.03;4982282;28;20441;-84
2024/01/30 08:10:09;;;;;;;24.75;18.13;;;;;;;6.22;100.00;102121.53;4988121;28;20062;-83
2024/01/30 08:12:37;;;;;;;27.58;18.52;;;;;;;6.23;100.00;102127.56;4981543;28;20043;-84
2024/01/30 08:15:04;;;;;;;25.38;17.75;;;;;;;6.20;100.00;102117.34;4969929;28;20055;-82
2024/01/30 08:17:31;;;;;;;23.38;17.58;;;;;;;6.26;100.00;102107.41;4992969;28;20064;-83
2024/01/30 08:19:58;;;;;;;28.77;18.55;;;;;;;6.27;100.00;102119.47;4980904;28;20108;-83
2024/01/30 08:22:25;;;;;;;26.02;18.02;;;;;;;6.25;100.00;102100.53;5004673;28;20058;-82
2024/01/30 08:24:51;;;;;;;32.33;19.65;;;;;;;6.36;100.00;102109.47;4992874;28;20105;-83
2024/01/30 08:27:18;;;;;;;27.67;19.13;;;;;;;6.45;100.00;102108.91;4977760;28;20055;-83
2024/01/30 08:29:46;;;;;;;30.08;18.75;;;;;;;6.50;100.00;102119.88;4978495;28;20104;-84
2024/01/30 08:32:13;;;;;;;27.80;17.88;;;;;;;6.54;100.00;102114.41;4995480;28;20050;-83
2024/01/30 08:34:39;;;;;;;31.00;17.98;;;;;;;6.60;100.00;102121.00;5000291;28;20062;-83
2024/01/30 08:37:06;;;;;;;27.00;17.92;;;;;;;6.70;100.00;102126.44;4979834;28;20047;-83
2024/01/30 08:39:33;;;;;;;25.92;18.73;;;;;;;6.67;100.00;102117.06;4983324;28;20047;-83
2024/01/30 08:42:00;;;;;;;30.30;17.75;;;;;;;6.77;100.00;102122.53;5003514;28;20463;-83
2024/01/30 08:44:27;;;;;;;28.17;17.65;;;;;;;6.83;100.00;102127.34;4994713;28;20473;-83
2024/01/30 08:46:58;;;;;;;25.80;18.25;;;;;;;6.82;100.00;102116.13;4976046;28;20062;-83
2024/01/30 08:49:27;;;;;;;24.38;17.42;;;;;;;6.82;100.00;102113.50;5001199;28;20085;-84
2024/01/30 08:51:54;;;;;;;29.83;18.15;;;;;;;6.99;100.00;102121.09;5004599;28;20057;-83
2024/01/30 08:54:21;;;;;;;25.52;16.55;;;;;;;7.07;100.00;102118.03;4996449;28;20062;-84
2024/01/30 08:56:47;;;;;;;24.48;17.92;;;;;;;7.15;100.00;102127.94;4995508;28;20053;-83
2024/01/30 08:59:14;;;;;;;25.98;17.17;;;;;;;7.20;100.00;102123.25;5002567;28;20089;-82
2024/01/30 09:01:40;;;;;;;29.85;18.58;;;;;;;7.32;100.00;102130.28;4989834;28;20046;-84
2024/01/30 09:04:08;;;;;;;24.20;17.42;;;;;;;7.29;100.00;102130.50;4987237;28;20069;-83
2024/01/30 09:06:39;;;;;;;27.42;17.85;;;;;;;7.27;100.00;102111.53;4992481;28;20081;-81
2024/01/30 09:09:06;;;;;;;25.20;17.10;;;;;;;7.32;100.00;102125.94;4985770;28;20058;-83
2024/01/30 09:11:32;;;;;;;27.45;16.75;;;;;;;7.48;100.00;102125.78;4992957;28;20149;-83
2024/01/30 09:13:59;;;;;;;21.67;17.13;;;;;;;7.46;100.00;102130.25;4999117;28;20047;-83
2024/01/30 09:16:25;;;;;;;24.08;17.35;;;;;;;7.70;100.00;102130.41;4991184;28;20105;-83
2024/01/30 09:18:52;;;;;;;28.25;17.13;;;;;;;7.66;100.00;102134.97;4986956;28;20138;-83
2024/01/30 09:21:20;;;;;;;21.95;15.75;;;;;;;7.81;100.00;102137.53;4987840;28;20073;-83
2024/01/30 09:23:47;;;;;;;25.20;17.40;;;;;;;7.82;100.00;102142.63;4992154;28;20409;-83
2024/01/30 09:26:13;;;;;;;23.48;16.13;;;;;;;7.85;100.00;102145.03;4989332;28;20114;-83
2024/01/30 09:28:42;;;;;;;22.35;17.60;;;;;;;7.94;100.00;102141.00;4976931;28;20063;-84
2024/01/30 09:31:11;;;;;;;24.58;16.50;;;;;;;7.92;100.00;102135.88;5000874;28;20137;-83
2024/01/30 09:33:38;;;;;;;24.27;16.60;;;;;;;7.97;100.00;102138.19;4993639;28;20053;-83
2024/01/30 09:36:06;;;;;;;26.35;17.50;;;;;;;8.00;100.00;102140.59;4988574;28;20050;-83
2024/01/30 09:38:34;;;;;;;24.73;16.85;;;;;;;8.07;100.00;102147.03;4996379;28;20049;-83
2024/01/30 09:41:08;;;;;;;29.33;18.10;;;;;;;8.20;100.00;102153.09;4992177;28;20057;-83
2024/01/30 09:43:35;;;;;;;24.02;16.83;;;;;;;8.20;100.00;102150.50;4996024;28;20484;-83
2024/01/30 09:46:04;;;;;;;23.48;16.75;;;;;;;8.38;100.00;102151.06;4998431;28;20061;-83
2024/01/30 09:48:31;;;;;;;26.35;16.30;;;;;;;8.31;100.00;102153.22;4993043;28;20469;-83
2024/01/30 09:50:58;;;;;;;24.80;17.23;;;;;;;8.38;100.00;102153.66;4995751;28;20043;-84
2024/01/30 09:53:26;;;;;;;26.83;16.50;;;;;;;8.42;100.00;102142.09;5000874;28;20050;-84
2024/01/30 09:55:54;;;;;;;22.98;16.27;;;;;;;8.44;100.00;102141.97;4977791;28;20078;-84
2024/01/30 09:58:22;;;;;;;22.80;15.88;;;;;;;8.42;100.00;102141.25;4986326;28;20058;-83
2024/01/30 10:00:49;;;;;;;21.88;15.73;;;;;;;8.48;100.00;102131.22;4973144;28;20159;-84
2024/01/30 10:03:15;;;;;;;22.45;15.45;;;;;;;8.44;100.00;102147.19;4981407;28;20046;-83
2024/01/30 10:05:47;;;;;;;23.83;16.25;;;;;;;8.60;100.00;102153.00;4981119;28;20501;-83
2024/01/30 10:08:13;;;;;;;25.02;17.08;;;;;;;8.56;100.00;102144.56;4988353;28;20050;-84
2024/01/30 10:10:40;;;;;;;26.30;17.13;;;;;;;8.68;100.00;102150.72;4987554;28;20085;-83
2024/01/30 10:13:08;;;;;;;24.27;16.70;;;;;;;8.56;100.00;102136.72;5001344;28;20108;-84
2024/01/30 10:15:35;;;;;;;27.08;16.15;;;;;;;8.64;100.00;102144.88;4987936;28;20089;-85
2024/01/30 10:18:02;;;;;;;24.90;16.27;;;;;;;8.87;100.00;102147.66;4982900;28;20053;-84
2024/01/30 10:20:29;;;;;;;25.38;16.38;;;;;;;8.91;100.00;102149.94;5009344;28;20121;-83
2024/01/30 10:22:56;;;;;;;25.27;16.73;;;;;;;8.88;100.00;102142.31;4996959;28;20054;-83
2024/01/30 10:25:23;;;;;;;24.30;17.00;;;;;;;8.88;100.00;102133.66;4990782;28;20125;-82
2024/01/30 10:27:55;;;;;;;22.17;15.52;;;;;;;8.86;100.00;102125.94;4985424;28;20057;-82
2024/01/30 10:30:24;;;;;;;;;;;;;;;8.83;100.00;102131.38;4993362;28;20077;-82
2024/01/30 10:32:51;;;;;;;24.38;17.23;;;;;;;8.90;100.00;102139.59;4994114;28;20364;-83
2024/01/30 10:35:18;;;;;;;27.95;17.10;;;;;;;8.87;100.00;102132.00;5000769;28;20053;-84
2024/01/30 10:37:49;;;;;;;22.33;16.92;;;;;;;8.96;100.00;102133.97;4999172;28;20062;-83
2024/01/30 10:40:16;;;;;;;24.25;15.85;;;;;;;9.07;100.00;102141.84;4997432;28;20047;-84
2024/01/30 10:42:47;;;;;;;25.05;16.52;;;;;;;9.25;100.00;102142.31;4983397;28;20044;-84
2024/01/30 10:45:15;;;;;;;25.75;16.52;;;;;;;9.35;100.00;102137.25;4993553;28;20061;-83
2024/01/30 10:47:49;;;;;;;21.45;15.60;;;;;;;9.34;100.00;102133.81;4993115;28;20424;-84
2024/01/30 10:50:16;;;;;;;21.33;15.75;;;;;;;9.45;100.00;102139.06;5000869;28;20089;-83
2024/01/30 10:52:43;;;;;;;23.48;15.93;;;;;;;9.59;100.00;102133.66;4991660;28;20051;-83
2024/01/30 10:55:11;;;;;;;24.15;15.32;;;;;;;9.68;100.00;102131.31;4989167;28;20077;-82
2024/01/30 10:57:50;;;;;;;27.55;16.95;;;;;;;9.76;100.00;102135.03;4996124;28;20062;-83
2024/01/30 11:00:22;;;;;;;21.83;16.75;;;;;;;9.82;100.00;102121.50;4981081;28;20183;-84
2024/01/30 11:02:50;;;;;;;24.23;17.07;;;;;;;9.79;100.00;102120.91;4986349;28;20050;-83
2024/01/30 11:05:25;;;;;;;23.05;16.92;;;;;;;9.85;100.00;102108.22;5002331;28;20656;-83
2024/01/30 11:07:51;;;;;;;23.25;15.77;;;;;;;9.88;100.00;102112.38;4992552;28;20414;-83
2024/01/30 11:10:18;;;;;;;24.73;16.38;;;;;;;9.98;100.00;102108.09;4993454;28;20405;-83
2024/01/30 11:12:47;;;;;;;22.83;17.20;;;;;;;10.07;100.00;102107.41;4992885;28;20338;-83
2024/01/30 11:15:15;;;;;;;30.35;16.27;;;;;;;10.11;100.00;102103.59;5000033;28;20041;-83
2024/01/30 11:17:43;;;;;;;22.27;15.90;;;;;;;10.15;100.00;102099.81;4981509;28;20047;-83
2024/01/30 11:20:16;;;;;;;21.20;15.80;;;;;;;10.25;100.00;102105.22;4987384;28;20050;-83
2024/01/30 11:22:46;;;;;;;22.23;15.80;;;;;;;10.33;100.00;102099.38;4989579;28;20055;-83
2024/01/30 11:25:18;;;;;;;21.00;15.32;;;;;;;10.42;100.00;102104.72;4989611;28;20058;-84
2024/01/30 11:27:53;;;;;;;23.63;15.77;;;;;;;10.39;100.00;102091.91;4977482;28;20145;-83
2024/01/30 11:30:26;;;;;;;25.10;15.82;;;;;;;10.45;99.58;102093.19;4976510;28;20074;-83
2024/01/30 11:33:01;;;;;;;22.77;15.88;;;;;;;10.55;99.41;102094.13;4973406;28;20561;-84
2024/01/30 11:35:31;;;;;;;22.55;16.13;;;;;;;10.52;99.74;102097.81;4978667;28;20624;-82
2024/01/30 11:37:59;;;;;;;24.38;15.73;;;;;;;10.60;99.02;102089.38;4990982;28;20086;-83
2024/01/30 11:40:28;;;;;;;21.30;16.38;;;;;;;10.82;99.01;102094.59;4976125;28;20081;-83
2024/01/30 11:42:55;;;;;;;21.58;15.77;;;;;;;10.72;98.67;102085.78;4982930;28;20150;-82
2024/01/30 11:45:22;;;;;;;25.42;16.30;;;;;;;10.70;97.78;102085.09;4984014;28;20126;-83
2024/01/30 11:47:49;;;;;;;22.90;14.43;;;;;;;10.71;97.59;102088.53;4983415;28;20081;-83
2024/01/30 11:50:16;;;;;;;19.65;15.48;;;;;;;10.88;97.70;102085.38;4976289;28;20082;-83